sensor_id;sensor_type;location;lat;lon;timestamp;temperature;humidity
18229;DHT22;9239;50.932;3.142;2023-04-24T00:01:03;9.30;99.90
18229;DHT22;9239;50.932;3.142;2023-04-24T00:03:33;9.20;99.90
18229;DHT22;9239;50.932;3.142;2023-04-24T00:06:01;9.20;99.90
18229;DHT22;9239;50.932;3.142;2023-04-24T00:08:28;9.10;99.90
18229;DHT22;9239;50.932;3.142;2023-04-24T00:10:55;9.10;99.90
18229;DHT22;9239;50.932;3.142;2023-04-24T00:13:22;9.00;99.90
18229;DHT22;9239;50.932;3.142;2023-04-24T00:15:49;9.00;99.90
18229;DHT22;9239;50.932;3.142;2023-04-24T00:18:16;8.90;99.90
18229;DHT22;9239;50.932;3.142;2023-04-24T00:20:43;8.90;99.90
18229;DHT22;9239;50.932;3.142;2023-04-24T00:23:11;9.00;99.90
18229;DHT22;9239;50.932;3.142;2023-04-24T00:25:38;9.00;99.90
18229;DHT22;9239;50.932;3.142;2023-04-24T00:28:05;9.00;99.90
18229;DHT22;9239;50.932;3.142;2023-04-24T00:30:32;8.90;99.90
18229;DHT22;9239;50.932;3.142;2023-04-24T00:32:59;8.90;99.90
18229;DHT22;9239;50.932;3.142;2023-04-24T00:35:26;8.90;99.90
18229;DHT22;9239;50.932;3.142;2023-04-24T00:37:53;8.90;99.90
18229;DHT22;9239;50.932;3.142;2023-04-24T00:40:22;8.90;99.90
18229;DHT22;9239;50.932;3.142;2023-04-24T00:42:49;8.90;99.90
18229;DHT22;9239;50.932;3.142;2023-04-24T00:45:16;8.90;99.90
18229;DHT22;9239;50.932;3.142;2023-04-24T00:47:43;8.90;99.90
18229;DHT22;9239;50.932;3.142;2023-04-24T00:50:12;9.00;99.90
18229;DHT22;9239;50.932;3.142;2023-04-24T00:52:41;8.90;99.90
18229;DHT22;9239;50.932;3.142;2023-04-24T00:55:08;9.00;99.90
18229;DHT22;9239;50.932;3.142;2023-04-24T00:57:37;9.00;99.90
18229;DHT22;9239;50.932;3.142;2023-04-24T01:00:06;9.00;99.90
18229;DHT22;9239;50.932;3.142;2023-04-24T01:02:37;8.90;99.90
18229;DHT22;9239;50.932;3.142;2023-04-24T01:05:06;8.90;99.90
18229;DHT22;9239;50.932;3.142;2023-04-24T01:07:34;8.90;99.90
18229;DHT22;9239;50.932;3.142;2023-04-24T01:10:02;8.90;99.90
18229;DHT22;9239;50.932;3.142;2023-04-24T01:12:30;8.90;99.90
18229;DHT22;9239;50.932;3.142;2023-04-24T01:14:59;8.90;99.90
18229;DHT22;9239;50.932;3.142;2023-04-24T01:17:26;8.90;99.90
18229;DHT22;9239;50.932;3.142;2023-04-24T01:19:53;8.80;99.90
18229;DHT22;9239;50.932;3.142;2023-04-24T01:22:23;8.80;99.90
18229;DHT22;9239;50.932;3.142;2023-04-24T01:24:51;8.80;99.90
18229;DHT22;9239;50.932;3.142;2023-04-24T01:27:19;8.90;99.90
18229;DHT22;9239;50.932;3.142;2023-04-24T01:29:46;8.80;99.90
18229;DHT22;9239;50.932;3.142;2023-04-24T01:32:15;8.80;99.90
18229;DHT22;9239;50.932;3.142;2023-04-24T01:34:42;8.80;99.90
18229;DHT22;9239;50.932;3.142;2023-04-24T01:37:09;8.80;99.90
18229;DHT22;9239;50.932;3.142;2023-04-24T01:39:37;8.80;99.90
18229;DHT22;9239;50.932;3.142;2023-04-24T01:42:05;8.80;99.90
18229;DHT22;9239;50.932;3.142;2023-04-24T01:44:33;8.80;99.90
18229;DHT22;9239;50.932;3.142;2023-04-24T01:47:01;8.80;99.90
18229;DHT22;9239;50.932;3.142;2023-04-24T01:49:28;8.90;99.90
18229;DHT22;9239;50.932;3.142;2023-04-24T01:51:56;8.90;99.90
18229;DHT22;9239;50.932;3.142;2023-04-24T01:54:23;8.90;99.90
18229;DHT22;9239;50.932;3.142;2023-04-24T01:56:51;9.00;99.90
18229;DHT22;9239;50.932;3.142;2023-04-24T01:59:20;9.00;99.90
18229;DHT22;9239;50.932;3.142;2023-04-24T02:01:48;9.00;99.90
18229;DHT22;9239;50.932;3.142;2023-04-24T02:04:15;9.00;99.90
18229;DHT22;9239;50.932;3.142;2023-04-24T02:06:42;9.00;99.90
18229;DHT22;9239;50.932;3.142;2023-04-24T02:09:09;9.00;99.90
18229;DHT22;9239;50.932;3.142;2023-04-24T02:11:36;9.00;99.90
18229;DHT22;9239;50.932;3.142;2023-04-24T02:14:04;9.00;99.90
18229;DHT22;9239;50.932;3.142;2023-04-24T02:16:31;9.00;99.90
18229;DHT22;9239;50.932;3.142;2023-04-24T02:18:59;9.00;99.90
18229;DHT22;9239;50.932;3.142;2023-04-24T02:21:26;9.00;99.90
18229;DHT22;9239;50.932;3.142;2023-04-24T02:23:54;9.10;99.90
18229;DHT22;9239;50.932;3.142;2023-04-24T02:26:21;9.00;99.90
18229;DHT22;9239;50.932;3.142;2023-04-24T02:28:48;9.00;99.90
18229;DHT22;9239;50.932;3.142;2023-04-24T02:31:16;9.00;99.90
18229;DHT22;9239;50.932;3.142;2023-04-24T02:33:43;8.90;99.90
18229;DHT22;9239;50.932;3.142;2023-04-24T02:36:10;9.00;99.90
18229;DHT22;9239;50.932;3.142;2023-04-24T02:38:37;9.00;99.90
18229;DHT22;9239;50.932;3.142;2023-04-24T02:41:04;9.00;99.90
18229;DHT22;9239;50.932;3.142;2023-04-24T02:43:31;9.00;99.90
18229;DHT22;9239;50.932;3.142;2023-04-24T02:45:59;8.90;99.90
18229;DHT22;9239;50.932;3.142;2023-04-24T02:48:27;8.90;99.90
18229;DHT22;9239;50.932;3.142;2023-04-24T02:50:54;8.90;99.90
18229;DHT22;9239;50.932;3.142;2023-04-24T02:53:21;8.80;99.90
18229;DHT22;9239;50.932;3.142;2023-04-24T02:55:48;8.90;99.90
18229;DHT22;9239;50.932;3.142;2023-04-24T02:58:15;8.90;99.90
18229;DHT22;9239;50.932;3.142;2023-04-24T03:00:43;8.80;99.90
18229;DHT22;9239;50.932;3.142;2023-04-24T03:03:10;8.80;99.90
18229;DHT22;9239;50.932;3.142;2023-04-24T03:05:38;8.80;99.90
18229;DHT22;9239;50.932;3.142;2023-04-24T03:08:05;8.70;99.90
18229;DHT22;9239;50.932;3.142;2023-04-24T03:10:32;8.70;99.90
18229;DHT22;9239;50.932;3.142;2023-04-24T03:12:59;8.70;99.90
18229;DHT22;9239;50.932;3.142;2023-04-24T03:15:26;8.70;99.90
18229;DHT22;9239;50.932;3.142;2023-04-24T03:17:53;8.70;99.90
18229;DHT22;9239;50.932;3.142;2023-04-24T03:20:20;8.60;99.90
18229;DHT22;9239;50.932;3.142;2023-04-24T03:22:49;8.60;99.90
18229;DHT22;9239;50.932;3.142;2023-04-24T03:25:16;8.50;99.90
18229;DHT22;9239;50.932;3.142;2023-04-24T03:27:43;8.50;99.90
18229;DHT22;9239;50.932;3.142;2023-04-24T03:30:10;8.50;99.90
18229;DHT22;9239;50.932;3.142;2023-04-24T03:32:37;8.50;99.90
18229;DHT22;9239;50.932;3.142;2023-04-24T03:35:05;8.50;99.90
18229;DHT22;9239;50.932;3.142;2023-04-24T03:37:33;8.60;99.90
18229;DHT22;9239;50.932;3.142;2023-04-24T03:40:02;8.50;99.90
18229;DHT22;9239;50.932;3.142;2023-04-24T03:42:29;8.50;99.90
18229;DHT22;9239;50.932;3.142;2023-04-24T03:44:56;8.50;99.90
18229;DHT22;9239;50.932;3.142;2023-04-24T03:47:23;8.50;99.90
18229;DHT22;9239;50.932;3.142;2023-04-24T03:49:50;8.50;99.90
18229;DHT22;9239;50.932;3.142;2023-04-24T03:52:17;8.50;99.90
18229;DHT22;9239;50.932;3.142;2023-04-24T03:54:44;8.60;99.90
18229;DHT22;9239;50.932;3.142;2023-04-24T03:57:12;8.60;99.90
18229;DHT22;9239;50.932;3.142;2023-04-24T03:59:39;8.60;99.90
18229;DHT22;9239;50.932;3.142;2023-04-24T04:02:06;8.60;99.90
18229;DHT22;9239;50.932;3.142;2023-04-24T04:04:33;8.50;99.90
18229;DHT22;9239;50.932;3.142;2023-04-24T04:07:00;8.50;99.90
18229;DHT22;9239;50.932;3.142;2023-04-24T04:09:28;8.50;99.90
18229;DHT22;9239;50.932;3.142;2023-04-24T04:11:55;8.50;99.90
18229;DHT22;9239;50.932;3.142;2023-04-24T04:14:23;8.50;99.90
18229;DHT22;9239;50.932;3.142;2023-04-24T04:16:51;8.50;99.90
18229;DHT22;9239;50.932;3.142;2023-04-24T04:19:18;8.40;99.90
18229;DHT22;9239;50.932;3.142;2023-04-24T04:21:45;8.40;99.90
18229;DHT22;9239;50.932;3.142;2023-04-24T04:24:16;8.40;99.90
18229;DHT22;9239;50.932;3.142;2023-04-24T04:26:43;8.40;99.90
18229;DHT22;9239;50.932;3.142;2023-04-24T04:29:12;8.50;99.90
18229;DHT22;9239;50.932;3.142;2023-04-24T04:31:42;8.50;99.90
18229;DHT22;9239;50.932;3.142;2023-04-24T04:34:09;8.50;99.90
18229;DHT22;9239;50.932;3.142;2023-04-24T04:36:37;8.60;99.90
18229;DHT22;9239;50.932;3.142;2023-04-24T04:39:05;8.60;99.90
18229;DHT22;9239;50.932;3.142;2023-04-24T04:41:32;8.60;99.90
18229;DHT22;9239;50.932;3.142;2023-04-24T04:44:01;8.60;99.90
18229;DHT22;9239;50.932;3.142;2023-04-24T04:46:30;8.60;99.90
18229;DHT22;9239;50.932;3.142;2023-04-24T04:49:01;8.60;99.90
18229;DHT22;9239;50.932;3.142;2023-04-24T04:51:28;8.60;99.90
18229;DHT22;9239;50.932;3.142;2023-04-24T04:53:55;8.70;99.90
18229;DHT22;9239;50.932;3.142;2023-04-24T04:56:22;8.60;99.90
18229;DHT22;9239;50.932;3.142;2023-04-24T04:58:49;8.70;99.90
18229;DHT22;9239;50.932;3.142;2023-04-24T05:01:16;8.60;99.90
18229;DHT22;9239;50.932;3.142;2023-04-24T05:03:44;8.60;99.90
18229;DHT22;9239;50.932;3.142;2023-04-24T05:06:12;8.60;99.90
18229;DHT22;9239;50.932;3.142;2023-04-24T05:08:39;8.60;99.90
18229;DHT22;9239;50.932;3.142;2023-04-24T05:11:06;8.60;99.90
18229;DHT22;9239;50.932;3.142;2023-04-24T05:13:33;8.60;99.90
18229;DHT22;9239;50.932;3.142;2023-04-24T05:16:00;8.60;99.90
18229;DHT22;9239;50.932;3.142;2023-04-24T05:18:27;8.60;99.90
18229;DHT22;9239;50.932;3.142;2023-04-24T05:20:54;8.60;99.90
18229;DHT22;9239;50.932;3.142;2023-04-24T05:23:23;8.70;99.90
18229;DHT22;9239;50.932;3.142;2023-04-24T05:25:51;8.70;99.90
18229;DHT22;9239;50.932;3.142;2023-04-24T05:28:18;8.70;99.90
18229;DHT22;9239;50.932;3.142;2023-04-24T05:30:45;8.70;99.90
18229;DHT22;9239;50.932;3.142;2023-04-24T05:33:12;8.80;99.90
18229;DHT22;9239;50.932;3.142;2023-04-24T05:35:40;8.80;99.90
18229;DHT22;9239;50.932;3.142;2023-04-24T05:38:11;8.70;99.90
18229;DHT22;9239;50.932;3.142;2023-04-24T05:40:41;8.80;99.90
18229;DHT22;9239;50.932;3.142;2023-04-24T05:43:08;8.80;99.90
18229;DHT22;9239;50.932;3.142;2023-04-24T05:45:35;8.90;99.90
18229;DHT22;9239;50.932;3.142;2023-04-24T05:48:02;8.90;99.90
18229;DHT22;9239;50.932;3.142;2023-04-24T05:50:30;9.00;99.90
18229;DHT22;9239;50.932;3.142;2023-04-24T05:52:57;9.00;99.90
18229;DHT22;9239;50.932;3.142;2023-04-24T05:55:25;9.00;99.90
18229;DHT22;9239;50.932;3.142;2023-04-24T05:57:53;9.00;99.90
18229;DHT22;9239;50.932;3.142;2023-04-24T06:00:20;9.10;99.90
18229;DHT22;9239;50.932;3.142;2023-04-24T06:02:47;9.20;99.90
18229;DHT22;9239;50.932;3.142;2023-04-24T06:05:14;9.20;99.90
18229;DHT22;9239;50.932;3.142;2023-04-24T06:07:41;9.30;99.90
18229;DHT22;9239;50.932;3.142;2023-04-24T06:10:12;9.40;99.90
18229;DHT22;9239;50.932;3.142;2023-04-24T06:12:39;9.40;99.90
18229;DHT22;9239;50.932;3.142;2023-04-24T06:15:10;9.30;99.90
18229;DHT22;9239;50.932;3.142;2023-04-24T06:17:37;9.30;99.90
18229;DHT22;9239;50.932;3.142;2023-04-24T06:20:05;9.20;99.90
18229;DHT22;9239;50.932;3.142;2023-04-24T06:22:33;9.20;99.90
18229;DHT22;9239;50.932;3.142;2023-04-24T06:25:00;9.40;99.90
18229;DHT22;9239;50.932;3.142;2023-04-24T06:27:28;9.50;99.90
18229;DHT22;9239;50.932;3.142;2023-04-24T06:29:55;9.60;99.90
18229;DHT22;9239;50.932;3.142;2023-04-24T06:32:24;9.60;99.90
18229;DHT22;9239;50.932;3.142;2023-04-24T06:34:51;9.60;99.90
18229;DHT22;9239;50.932;3.142;2023-04-24T06:37:19;9.60;99.90
18229;DHT22;9239;50.932;3.142;2023-04-24T06:39:46;9.50;99.90
18229;DHT22;9239;50.932;3.142;2023-04-24T06:42:13;9.50;99.90
18229;DHT22;9239;50.932;3.142;2023-04-24T06:44:40;9.50;99.90
18229;DHT22;9239;50.932;3.142;2023-04-24T06:47:07;9.50;99.90
18229;DHT22;9239;50.932;3.142;2023-04-24T06:49:36;9.50;99.90
18229;DHT22;9239;50.932;3.142;2023-04-24T06:52:04;9.40;99.90
18229;DHT22;9239;50.932;3.142;2023-04-24T06:54:32;9.50;99.90
18229;DHT22;9239;50.932;3.142;2023-04-24T06:56:59;9.60;99.90
18229;DHT22;9239;50.932;3.142;2023-04-24T06:59:28;9.70;99.90
18229;DHT22;9239;50.932;3.142;2023-04-24T07:01:55;9.70;99.90
18229;DHT22;9239;50.932;3.142;2023-04-24T07:04:22;9.60;99.90
18229;DHT22;9239;50.932;3.142;2023-04-24T07:06:52;9.60;99.90
18229;DHT22;9239;50.932;3.142;2023-04-24T07:09:21;9.50;99.90
18229;DHT22;9239;50.932;3.142;2023-04-24T07:11:49;9.40;99.90
18229;DHT22;9239;50.932;3.142;2023-04-24T07:14:17;9.50;99.90
18229;DHT22;9239;50.932;3.142;2023-04-24T07:16:44;9.50;99.90
18229;DHT22;9239;50.932;3.142;2023-04-24T07:19:12;9.60;99.90
18229;DHT22;9239;50.932;3.142;2023-04-24T07:21:39;9.70;99.90
18229;DHT22;9239;50.932;3.142;2023-04-24T07:24:07;9.90;99.90
18229;DHT22;9239;50.932;3.142;2023-04-24T07:26:37;9.90;99.90
18229;DHT22;9239;50.932;3.142;2023-04-24T07:29:04;10.00;99.90
18229;DHT22;9239;50.932;3.142;2023-04-24T07:31:31;9.90;99.90
18229;DHT22;9239;50.932;3.142;2023-04-24T07:33:58;9.90;99.90
18229;DHT22;9239;50.932;3.142;2023-04-24T07:36:26;9.80;99.90
18229;DHT22;9239;50.932;3.142;2023-04-24T07:38:54;9.80;99.90
18229;DHT22;9239;50.932;3.142;2023-04-24T07:41:23;9.70;99.90
18229;DHT22;9239;50.932;3.142;2023-04-24T07:43:50;9.60;99.90
18229;DHT22;9239;50.932;3.142;2023-04-24T07:46:18;9.60;99.90
18229;DHT22;9239;50.932;3.142;2023-04-24T07:48:45;9.70;99.90
18229;DHT22;9239;50.932;3.142;2023-04-24T07:51:13;9.80;99.90
18229;DHT22;9239;50.932;3.142;2023-04-24T07:53:40;10.00;99.90
18229;DHT22;9239;50.932;3.142;2023-04-24T07:56:07;10.20;99.90
18229;DHT22;9239;50.932;3.142;2023-04-24T07:58:36;10.30;99.90
18229;DHT22;9239;50.932;3.142;2023-04-24T08:01:03;10.30;99.90
18229;DHT22;9239;50.932;3.142;2023-04-24T08:03:30;10.20;99.90
18229;DHT22;9239;50.932;3.142;2023-04-24T08:05:57;10.30;99.90
18229;DHT22;9239;50.932;3.142;2023-04-24T08:08:24;10.40;99.90
18229;DHT22;9239;50.932;3.142;2023-04-24T08:10:51;10.50;99.90
18229;DHT22;9239;50.932;3.142;2023-04-24T08:13:18;10.50;99.90
18229;DHT22;9239;50.932;3.142;2023-04-24T08:15:46;10.40;99.90
18229;DHT22;9239;50.932;3.142;2023-04-24T08:18:13;10.40;99.90
18229;DHT22;9239;50.932;3.142;2023-04-24T08:20:41;10.30;99.90
18229;DHT22;9239;50.932;3.142;2023-04-24T08:23:08;10.30;99.90
18229;DHT22;9239;50.932;3.142;2023-04-24T08:25:35;10.20;99.90
18229;DHT22;9239;50.932;3.142;2023-04-24T08:28:02;10.20;99.90
18229;DHT22;9239;50.932;3.142;2023-04-24T08:30:30;10.20;99.90
18229;DHT22;9239;50.932;3.142;2023-04-24T08:32:58;10.20;99.90
18229;DHT22;9239;50.932;3.142;2023-04-24T08:35:25;10.30;99.90
18229;DHT22;9239;50.932;3.142;2023-04-24T08:37:53;10.30;99.90
18229;DHT22;9239;50.932;3.142;2023-04-24T08:40:27;10.40;99.90
18229;DHT22;9239;50.932;3.142;2023-04-24T08:42:55;10.50;99.90
18229;DHT22;9239;50.932;3.142;2023-04-24T08:45:23;10.50;99.90
18229;DHT22;9239;50.932;3.142;2023-04-24T08:47:50;10.50;99.90
18229;DHT22;9239;50.932;3.142;2023-04-24T08:50:20;10.60;99.90
18229;DHT22;9239;50.932;3.142;2023-04-24T08:52:49;10.60;99.90
18229;DHT22;9239;50.932;3.142;2023-04-24T08:55:19;10.60;99.90
18229;DHT22;9239;50.932;3.142;2023-04-24T08:57:51;10.60;99.90
18229;DHT22;9239;50.932;3.142;2023-04-24T09:00:20;10.70;99.90
18229;DHT22;9239;50.932;3.142;2023-04-24T09:02:49;10.70;99.90
18229;DHT22;9239;50.932;3.142;2023-04-24T09:05:17;10.70;99.90
18229;DHT22;9239;50.932;3.142;2023-04-24T09:07:49;10.80;99.90
18229;DHT22;9239;50.932;3.142;2023-04-24T09:10:17;10.80;99.90
18229;DHT22;9239;50.932;3.142;2023-04-24T09:12:44;10.80;99.90
18229;DHT22;9239;50.932;3.142;2023-04-24T09:15:11;10.80;99.90
18229;DHT22;9239;50.932;3.142;2023-04-24T09:17:39;10.70;99.90
18229;DHT22;9239;50.932;3.142;2023-04-24T09:20:07;10.60;99.90
18229;DHT22;9239;50.932;3.142;2023-04-24T09:22:34;10.60;99.90
18229;DHT22;9239;50.932;3.142;2023-04-24T09:25:07;10.60;99.90
18229;DHT22;9239;50.932;3.142;2023-04-24T09:27:34;10.70;99.90
18229;DHT22;9239;50.932;3.142;2023-04-24T09:30:03;10.80;99.90
18229;DHT22;9239;50.932;3.142;2023-04-24T09:32:30;10.90;99.90
18229;DHT22;9239;50.932;3.142;2023-04-24T09:35:11;11.00;99.90
18229;DHT22;9239;50.932;3.142;2023-04-24T09:37:39;11.10;99.90
18229;DHT22;9239;50.932;3.142;2023-04-24T09:40:14;11.10;99.90
18229;DHT22;9239;50.932;3.142;2023-04-24T09:42:44;11.00;99.90
18229;DHT22;9239;50.932;3.142;2023-04-24T09:45:12;11.00;99.90
18229;DHT22;9239;50.932;3.142;2023-04-24T09:47:39;10.90;99.90
18229;DHT22;9239;50.932;3.142;2023-04-24T09:50:11;10.90;99.90
18229;DHT22;9239;50.932;3.142;2023-04-24T09:52:46;10.80;99.90
18229;DHT22;9239;50.932;3.142;2023-04-24T09:55:17;10.90;99.90
18229;DHT22;9239;50.932;3.142;2023-04-24T09:57:51;10.90;99.90
18229;DHT22;9239;50.932;3.142;2023-04-24T10:00:21;10.80;99.90
18229;DHT22;9239;50.932;3.142;2023-04-24T10:02:54;10.80;99.90
18229;DHT22;9239;50.932;3.142;2023-04-24T10:05:24;10.80;99.90
18229;DHT22;9239;50.932;3.142;2023-04-24T10:07:52;10.80;99.90
18229;DHT22;9239;50.932;3.142;2023-04-24T10:10:24;10.90;99.90
18229;DHT22;9239;50.932;3.142;2023-04-24T10:12:51;11.00;99.90
18229;DHT22;9239;50.932;3.142;2023-04-24T10:15:19;11.10;99.90
18229;DHT22;9239;50.932;3.142;2023-04-24T10:17:48;11.30;99.90
18229;DHT22;9239;50.932;3.142;2023-04-24T10:20:19;11.30;99.90
18229;DHT22;9239;50.932;3.142;2023-04-24T10:22:48;11.30;99.90
18229;DHT22;9239;50.932;3.142;2023-04-24T10:25:18;11.40;99.90
18229;DHT22;9239;50.932;3.142;2023-04-24T10:27:48;11.30;99.90
18229;DHT22;9239;50.932;3.142;2023-04-24T10:30:16;11.40;99.90
18229;DHT22;9239;50.932;3.142;2023-04-24T10:32:43;11.60;99.90
18229;DHT22;9239;50.932;3.142;2023-04-24T10:35:12;11.80;99.90
18229;DHT22;9239;50.932;3.142;2023-04-24T10:37:43;11.80;99.90
18229;DHT22;9239;50.932;3.142;2023-04-24T10:40:12;11.80;99.90
18229;DHT22;9239;50.932;3.142;2023-04-24T10:42:42;12.00;99.90
18229;DHT22;9239;50.932;3.142;2023-04-24T10:45:18;12.10;99.90
18229;DHT22;9239;50.932;3.142;2023-04-24T10:47:56;12.00;99.90
18229;DHT22;9239;50.932;3.142;2023-04-24T10:50:25;12.00;99.90
18229;DHT22;9239;50.932;3.142;2023-04-24T10:52:52;11.90;99.90
18229;DHT22;9239;50.932;3.142;2023-04-24T10:55:41;11.80;99.90
18229;DHT22;9239;50.932;3.142;2023-04-24T10:58:09;11.80;99.90
18229;DHT22;9239;50.932;3.142;2023-04-24T11:00:39;12.00;99.90
18229;DHT22;9239;50.932;3.142;2023-04-24T11:03:07;12.10;99.90
18229;DHT22;9239;50.932;3.142;2023-04-24T11:05:52;12.20;99.90
18229;DHT22;9239;50.932;3.142;2023-04-24T11:08:25;12.40;99.90
18229;DHT22;9239;50.932;3.142;2023-04-24T11:11:00;12.30;99.90
18229;DHT22;9239;50.932;3.142;2023-04-24T11:16:43;12.30;99.90
18229;DHT22;9239;50.932;3.142;2023-04-24T11:19:20;12.20;99.90
18229;DHT22;9239;50.932;3.142;2023-04-24T11:21:48;12.10;99.90
18229;DHT22;9239;50.932;3.142;2023-04-24T11:24:29;12.10;99.90
18229;DHT22;9239;50.932;3.142;2023-04-24T11:26:57;12.30;99.90
18229;DHT22;9239;50.932;3.142;2023-04-24T11:29:39;12.50;99.90
18229;DHT22;9239;50.932;3.142;2023-04-24T11:32:18;12.60;99.90
18229;DHT22;9239;50.932;3.142;2023-04-24T11:34:50;12.60;99.90
18229;DHT22;9239;50.932;3.142;2023-04-24T11:37:17;12.70;99.90
18229;DHT22;9239;50.932;3.142;2023-04-24T11:39:44;12.80;99.90
18229;DHT22;9239;50.932;3.142;2023-04-24T11:42:14;12.70;99.90
18229;DHT22;9239;50.932;3.142;2023-04-24T11:44:42;12.60;99.90
18229;DHT22;9239;50.932;3.142;2023-04-24T11:47:09;12.70;99.90
18229;DHT22;9239;50.932;3.142;2023-04-24T11:49:38;12.70;99.90
18229;DHT22;9239;50.932;3.142;2023-04-24T11:52:05;12.80;99.90
18229;DHT22;9239;50.932;3.142;2023-04-24T11:54:32;12.70;99.90
18229;DHT22;9239;50.932;3.142;2023-04-24T11:56:59;12.60;99.90
18229;DHT22;9239;50.932;3.142;2023-04-24T11:59:30;12.50;99.90
18229;DHT22;9239;50.932;3.142;2023-04-24T12:02:01;12.50;99.90
18229;DHT22;9239;50.932;3.142;2023-04-24T12:04:39;12.80;99.90
18229;DHT22;9239;50.932;3.142;2023-04-24T12:07:07;12.90;99.90
18229;DHT22;9239;50.932;3.142;2023-04-24T12:09:42;12.80;99.90
18229;DHT22;9239;50.932;3.142;2023-04-24T12:12:09;12.70;99.90
18229;DHT22;9239;50.932;3.142;2023-04-24T12:14:43;12.40;99.90
18229;DHT22;9239;50.932;3.142;2023-04-24T12:17:10;12.40;99.90
18229;DHT22;9239;50.932;3.142;2023-04-24T12:19:37;12.40;99.90
18229;DHT22;9239;50.932;3.142;2023-04-24T12:22:06;12.40;99.90
18229;DHT22;9239;50.932;3.142;2023-04-24T12:24:33;12.50;99.90
18229;DHT22;9239;50.932;3.142;2023-04-24T12:27:00;12.60;99.90
18229;DHT22;9239;50.932;3.142;2023-04-24T12:29:28;12.50;99.90
18229;DHT22;9239;50.932;3.142;2023-04-24T12:31:55;12.40;99.90
18229;DHT22;9239;50.932;3.142;2023-04-24T12:34:23;12.30;99.90
18229;DHT22;9239;50.932;3.142;2023-04-24T12:36:51;12.30;99.90
18229;DHT22;9239;50.932;3.142;2023-04-24T12:39:20;12.40;99.90
18229;DHT22;9239;50.932;3.142;2023-04-24T12:41:58;12.10;99.90
18229;DHT22;9239;50.932;3.142;2023-04-24T12:44:30;12.10;99.90
18229;DHT22;9239;50.932;3.142;2023-04-24T12:46:59;12.10;99.90
18229;DHT22;9239;50.932;3.142;2023-04-24T12:49:27;12.40;99.90
18229;DHT22;9239;50.932;3.142;2023-04-24T12:51:54;12.50;99.90
18229;DHT22;9239;50.932;3.142;2023-04-24T12:54:22;12.50;99.90
18229;DHT22;9239;50.932;3.142;2023-04-24T12:56:49;12.60;99.90
18229;DHT22;9239;50.932;3.142;2023-04-24T12:59:16;12.60;99.90
18229;DHT22;9239;50.932;3.142;2023-04-24T13:01:43;12.70;99.90
18229;DHT22;9239;50.932;3.142;2023-04-24T13:04:11;12.70;99.90
18229;DHT22;9239;50.932;3.142;2023-04-24T13:06:37;12.70;99.90
18229;DHT22;9239;50.932;3.142;2023-04-24T13:09:04;12.50;99.90
18229;DHT22;9239;50.932;3.142;2023-04-24T13:11:33;12.20;99.90
18229;DHT22;9239;50.932;3.142;2023-04-24T13:14:00;12.10;99.90
18229;DHT22;9239;50.932;3.142;2023-04-24T13:16:27;12.20;99.90
18229;DHT22;9239;50.932;3.142;2023-04-24T13:18:53;12.30;99.90
18229;DHT22;9239;50.932;3.142;2023-04-24T13:21:20;12.20;99.90
18229;DHT22;9239;50.932;3.142;2023-04-24T13:23:47;12.30;99.90
18229;DHT22;9239;50.932;3.142;2023-04-24T13:26:14;12.50;99.90
18229;DHT22;9239;50.932;3.142;2023-04-24T13:28:43;12.50;99.90
18229;DHT22;9239;50.932;3.142;2023-04-24T13:31:10;12.50;99.90
18229;DHT22;9239;50.932;3.142;2023-04-24T13:33:37;12.40;99.90
18229;DHT22;9239;50.932;3.142;2023-04-24T13:36:04;12.40;99.90
18229;DHT22;9239;50.932;3.142;2023-04-24T13:38:31;12.50;99.90
18229;DHT22;9239;50.932;3.142;2023-04-24T13:40:58;12.50;99.90
18229;DHT22;9239;50.932;3.142;2023-04-24T13:43:25;12.30;99.90
18229;DHT22;9239;50.932;3.142;2023-04-24T13:45:53;12.30;99.90
18229;DHT22;9239;50.932;3.142;2023-04-24T13:48:20;12.50;99.90
18229;DHT22;9239;50.932;3.142;2023-04-24T13:50:47;12.60;99.90
18229;DHT22;9239;50.932;3.142;2023-04-24T13:53:15;12.70;99.90
18229;DHT22;9239;50.932;3.142;2023-04-24T13:55:42;12.70;99.90
18229;DHT22;9239;50.932;3.142;2023-04-24T13:58:09;12.40;99.90
18229;DHT22;9239;50.932;3.142;2023-04-24T14:00:36;12.30;99.90
18229;DHT22;9239;50.932;3.142;2023-04-24T14:03:04;12.30;99.90
18229;DHT22;9239;50.932;3.142;2023-04-24T14:05:31;12.30;99.90
18229;DHT22;9239;50.932;3.142;2023-04-24T14:07:58;12.30;99.90
18229;DHT22;9239;50.932;3.142;2023-04-24T14:10:25;12.20;99.90
18229;DHT22;9239;50.932;3.142;2023-04-24T14:12:52;12.20;99.90
18229;DHT22;9239;50.932;3.142;2023-04-24T14:15:19;12.20;99.90
18229;DHT22;9239;50.932;3.142;2023-04-24T14:17:48;12.20;99.90
18229;DHT22;9239;50.932;3.142;2023-04-24T14:20:16;12.30;99.90
18229;DHT22;9239;50.932;3.142;2023-04-24T14:23:05;12.30;99.90
18229;DHT22;9239;50.932;3.142;2023-04-24T14:25:32;12.00;99.90
18229;DHT22;9239;50.932;3.142;2023-04-24T14:28:00;11.80;99.90
18229;DHT22;9239;50.932;3.142;2023-04-24T14:30:27;11.80;99.90
18229;DHT22;9239;50.932;3.142;2023-04-24T14:32:54;11.70;99.90
18229;DHT22;9239;50.932;3.142;2023-04-24T14:35:22;11.80;99.90
18229;DHT22;9239;50.932;3.142;2023-04-24T14:37:49;11.70;99.90
18229;DHT22;9239;50.932;3.142;2023-04-24T14:40:16;11.60;99.90
18229;DHT22;9239;50.932;3.142;2023-04-24T14:42:43;11.70;99.90
18229;DHT22;9239;50.932;3.142;2023-04-24T14:45:11;11.80;99.90
18229;DHT22;9239;50.932;3.142;2023-04-24T14:47:38;11.90;99.90
18229;DHT22;9239;50.932;3.142;2023-04-24T14:50:06;12.00;99.90
18229;DHT22;9239;50.932;3.142;2023-04-24T14:52:35;12.10;99.90
18229;DHT22;9239;50.932;3.142;2023-04-24T14:55:03;12.20;99.90
18229;DHT22;9239;50.932;3.142;2023-04-24T14:57:30;12.20;99.90
18229;DHT22;9239;50.932;3.142;2023-04-24T14:59:57;12.20;99.90
18229;DHT22;9239;50.932;3.142;2023-04-24T15:02:24;12.30;99.90
18229;DHT22;9239;50.932;3.142;2023-04-24T15:04:51;12.30;99.90
18229;DHT22;9239;50.932;3.142;2023-04-24T15:07:18;12.30;99.90
18229;DHT22;9239;50.932;3.142;2023-04-24T15:09:47;12.20;99.90
18229;DHT22;9239;50.932;3.142;2023-04-24T15:12:14;12.20;99.90
18229;DHT22;9239;50.932;3.142;2023-04-24T15:14:41;12.30;99.90
18229;DHT22;9239;50.932;3.142;2023-04-24T15:17:08;12.50;99.90
18229;DHT22;9239;50.932;3.142;2023-04-24T15:19:35;12.60;99.90
18229;DHT22;9239;50.932;3.142;2023-04-24T15:22:02;12.70;99.90
18229;DHT22;9239;50.932;3.142;2023-04-24T15:24:29;12.60;99.90
18229;DHT22;9239;50.932;3.142;2023-04-24T15:26:58;12.40;99.90
18229;DHT22;9239;50.932;3.142;2023-04-24T15:29:27;12.40;99.90
18229;DHT22;9239;50.932;3.142;2023-04-24T15:31:54;12.20;99.90
18229;DHT22;9239;50.932;3.142;2023-04-24T15:34:21;12.10;99.90
18229;DHT22;9239;50.932;3.142;2023-04-24T15:36:48;12.10;99.90
18229;DHT22;9239;50.932;3.142;2023-04-24T15:39:15;12.10;99.90
18229;DHT22;9239;50.932;3.142;2023-04-24T15:41:42;12.10;99.90
18229;DHT22;9239;50.932;3.142;2023-04-24T15:44:11;12.00;99.90
18229;DHT22;9239;50.932;3.142;2023-04-24T15:46:38;11.90;99.90
18229;DHT22;9239;50.932;3.142;2023-04-24T15:49:05;11.70;99.90
18229;DHT22;9239;50.932;3.142;2023-04-24T15:51:32;11.70;99.90
18229;DHT22;9239;50.932;3.142;2023-04-24T15:53:59;11.70;99.90
18229;DHT22;9239;50.932;3.142;2023-04-24T15:56:26;11.70;99.90
18229;DHT22;9239;50.932;3.142;2023-04-24T15:58:56;11.80;99.90
18229;DHT22;9239;50.932;3.142;2023-04-24T16:01:25;11.90;99.90
18229;DHT22;9239;50.932;3.142;2023-04-24T16:03:52;11.90;99.90